Time;durP1;ratioP1;P1;durP2;ratioP2;P2;SDS_P1;SDS_P2;PMS_P1;PMS_P2;Temp;Humidity;BMP_temperature;BMP_pressure;BME280_temperature;BME280_humidity;BME280_pressure;Samples;Min_cycle;Max_cycle;Signal;HPM_P1;HPM_P2
2023/03/11 00:01:23;;;;;;;12.38;7.90;;;-0.30;99.90;;;;;;5060287;28;20016;-74
2023/03/11 00:03:49;;;;;;;15.18;8.18;;;-0.30;99.90;;;;;;5045441;28;20041;-74
2023/03/11 00:06:15;;;;;;;13.60;8.25;;;-0.40;99.90;;;;;;5041632;28;20035;-74
2023/03/11 00:08:41;;;;;;;11.65;7.38;;;-0.40;99.90;;;;;;5071808;28;20036;-74
2023/03/11 00:11:07;;;;;;;12.73;7.93;;;-0.40;99.90;;;;;;5078302;28;20036;-74
2023/03/11 00:13:32;;;;;;;17.90;8.07;;;-0.40;99.90;;;;;;5068859;28;20506;-74
2023/03/11 00:15:59;;;;;;;13.57;8.15;;;-0.40;99.90;;;;;;5046388;28;20139;-74
2023/03/11 00:18:29;;;;;;;12.43;8.57;;;-0.40;99.90;;;;;;5041500;28;20131;-74
2023/03/11 00:20:56;;;;;;;18.38;8.90;;;-0.30;99.90;;;;;;5039744;28;20029;-74
2023/03/11 00:23:23;;;;;;;12.27;8.48;;;-0.20;99.90;;;;;;5075476;28;20107;-74
2023/03/11 00:25:49;;;;;;;15.57;8.77;;;-0.10;99.90;;;;;;5074657;28;20032;-74
2023/03/11 00:28:15;;;;;;;13.48;8.65;;;-0.10;99.90;;;;;;5061749;28;20120;-74
2023/03/11 00:30:43;;;;;;;18.75;10.32;;;0.00;99.90;;;;;;5078272;28;20203;-74
2023/03/11 00:33:11;;;;;;;14.27;9.88;;;-0.10;99.90;;;;;;5082340;28;20039;-74
2023/03/11 00:35:37;;;;;;;16.70;9.18;;;0.00;99.90;;;;;;5067323;28;20063;-74
2023/03/11 00:38:07;;;;;;;13.77;8.98;;;0.00;99.90;;;;;;5070214;28;20395;-74
2023/03/11 00:40:34;;;;;;;15.32;9.20;;;0.00;99.90;;;;;;5058878;28;20048;-75
2023/03/11 00:43:00;;;;;;;13.88;9.18;;;-0.10;99.90;;;;;;5081744;28;20036;-74
2023/03/11 00:45:26;;;;;;;13.32;8.43;;;-0.10;99.90;;;;;;5078225;28;20040;-74
2023/03/11 00:47:53;;;;;;;15.00;8.90;;;-0.10;99.90;;;;;;5082352;28;20444;-74
2023/03/11 00:50:22;;;;;;;15.02;8.18;;;-0.20;99.90;;;;;;5081365;28;20059;-75
2023/03/11 00:52:49;;;;;;;12.90;8.27;;;-0.20;99.90;;;;;;5044245;28;20041;-74
2023/03/11 00:55:20;;;;;;;18.65;9.73;;;-0.20;99.90;;;;;;5047312;28;20484;-74
2023/03/11 00:57:46;;;;;;;15.07;9.70;;;-0.30;99.90;;;;;;5078351;28;20096;-75
2023/03/11 01:00:17;;;;;;;14.98;9.23;;;-0.30;99.90;;;;;;5077205;28;20077;-74
2023/03/11 01:02:43;;;;;;;15.52;10.07;;;-0.40;99.90;;;;;;5078263;28;20744;-74
2023/03/11 01:05:09;;;;;;;12.90;9.10;;;-0.40;99.90;;;;;;5038306;28;20530;-74
2023/03/11 01:07:35;;;;;;;15.65;9.05;;;-0.40;99.90;;;;;;5076776;28;20040;-75
2023/03/11 01:10:01;;;;;;;15.68;8.60;;;-0.40;99.90;;;;;;5055527;28;20029;-74
2023/03/11 01:12:27;;;;;;;14.45;8.93;;;-0.40;99.90;;;;;;5056812;28;20075;-75
2023/03/11 01:14:53;;;;;;;16.00;9.15;;;-0.40;99.90;;;;;;5080652;28;20067;-74
2023/03/11 01:17:20;;;;;;;14.55;9.27;;;-0.30;99.90;;;;;;5072234;28;20028;-74
2023/03/11 01:19:46;;;;;;;14.63;8.68;;;-0.40;99.90;;;;;;5080134;28;20433;-74
2023/03/11 01:22:12;;;;;;;12.18;8.52;;;-0.50;99.90;;;;;;5080197;28;20035;-74
2023/03/11 01:24:38;;;;;;;12.55;8.05;;;-0.50;99.90;;;;;;5080194;28;20062;-74
2023/03/11 01:27:03;;;;;;;13.55;8.15;;;-0.50;99.90;;;;;;5061674;28;20038;-74
2023/03/11 01:29:29;;;;;;;13.07;8.52;;;-0.50;99.90;;;;;;5060465;28;20032;-74
2023/03/11 01:31:55;;;;;;;13.25;8.13;;;-0.50;99.90;;;;;;5064015;28;20040;-74
2023/03/11 01:34:20;;;;;;;14.88;9.13;;;-0.60;99.90;;;;;;5073582;28;20024;-74
2023/03/11 01:36:46;;;;;;;17.63;8.75;;;-0.60;99.90;;;;;;5080692;28;20056;-74
2023/03/11 01:39:11;;;;;;;14.32;9.25;;;-0.60;99.90;;;;;;5055435;28;20055;-74
2023/03/11 01:41:37;;;;;;;15.45;8.70;;;-0.60;99.90;;;;;;5040339;28;20057;-74
2023/03/11 01:44:03;;;;;;;13.23;9.32;;;-0.60;99.90;;;;;;5060321;28;20032;-74
2023/03/11 01:46:29;;;;;;;13.27;9.45;;;-0.60;99.90;;;;;;5060801;28;20067;-74
2023/03/11 01:49:04;;;;;;;13.10;8.65;;;-0.60;99.90;;;;;;5072020;28;20056;-74
2023/03/11 01:51:42;;;;;;;17.55;10.35;;;-0.60;99.90;;;;;;5075987;28;20032;-74
2023/03/11 01:54:34;;;;;;;18.17;9.82;;;-0.50;99.90;;;;;;5040182;28;20051;-75
2023/03/11 01:57:04;;;;;;;11.95;9.20;;;-0.50;99.90;;;;;;5040804;28;20043;-74
2023/03/11 01:59:33;;;;;;;15.55;9.85;;;-0.50;99.90;;;;;;5046734;28;20028;-75
2023/03/11 02:02:01;;;;;;;16.02;9.25;;;-0.50;99.90;;;;;;5072953;28;20715;-74
2023/03/11 02:04:33;;;;;;;12.65;9.45;;;-0.50;99.90;;;;;;5077387;28;20031;-74
2023/03/11 02:07:00;;;;;;;12.40;8.73;;;-0.60;99.90;;;;;;5080273;28;20104;-75
2023/03/11 02:09:25;;;;;;;13.20;8.95;;;-0.70;99.90;;;;;;5077418;28;20138;-74
2023/03/11 02:11:52;;;;;;;19.42;9.98;;;-0.70;99.90;;;;;;5075666;28;20029;-75
2023/03/11 02:14:18;;;;;;;13.65;8.63;;;-0.70;99.90;;;;;;5059814;28;20040;-74
2023/03/11 02:16:44;;;;;;;16.33;9.82;;;-0.70;99.90;;;;;;5052003;28;20021;-74
2023/03/11 02:19:55;;;;;;;15.30;9.02;;;-0.80;99.90;;;;;;5060089;28;20127;-74
2023/03/11 02:22:20;;;;;;;13.52;9.05;;;-0.80;99.90;;;;;;5055254;28;20078;-74
2023/03/11 02:25:01;;;;;;;14.35;9.02;;;-0.80;99.90;;;;;;5061956;28;20466;-74
2023/03/11 02:27:30;;;;;;;14.88;8.65;;;-0.80;99.90;;;;;;5039671;28;20117;-74
2023/03/11 02:29:57;;;;;;;13.77;8.48;;;-0.80;99.90;;;;;;5068406;28;20063;-74
2023/03/11 02:32:23;;;;;;;17.55;9.25;;;-0.80;99.90;;;;;;5060035;28;20036;-75
2023/03/11 02:34:49;;;;;;;12.50;8.40;;;-0.80;99.90;;;;;;5048905;28;20043;-75
2023/03/11 02:37:16;;;;;;;12.80;8.52;;;-0.90;99.90;;;;;;5066730;28;20472;-74
2023/03/11 02:39:48;;;;;;;12.95;8.90;;;-0.90;99.90;;;;;;5070686;28;20123;-75
2023/03/11 02:42:31;;;;;;;;;;;-0.90;99.90;;;;;;5076408;28;20037;-74
2023/03/11 02:44:56;;;;;;;16.73;9.20;;;-0.90;99.90;;;;;;5076261;28;19916;-74
2023/03/11 02:47:22;;;;;;;11.85;8.55;;;-1.00;99.90;;;;;;5059827;28;20446;-75
2023/03/11 02:49:48;;;;;;;15.38;8.65;;;-1.00;99.90;;;;;;5073204;28;20020;-75
2023/03/11 02:52:14;;;;;;;16.17;8.85;;;-1.00;99.90;;;;;;5069155;28;20329;-75
2023/03/11 02:54:39;;;;;;;14.27;9.13;;;-1.10;99.90;;;;;;5073429;28;20196;-75
2023/03/11 02:57:05;;;;;;;12.02;8.82;;;-1.10;99.90;;;;;;5091234;28;20073;-74
2023/03/11 02:59:31;;;;;;;15.05;9.43;;;-1.10;99.90;;;;;;5066616;28;20510;-74
2023/03/11 03:01:56;;;;;;;16.83;9.50;;;-1.20;99.90;;;;;;5041687;28;20745;-74
2023/03/11 03:04:22;;;;;;;16.90;9.35;;;-1.20;99.90;;;;;;5072596;28;20036;-74
2023/03/11 03:06:48;;;;;;;12.65;8.65;;;-1.20;99.90;;;;;;5073761;28;20095;-74
2023/03/11 03:09:13;;;;;;;14.57;8.77;;;-1.30;99.90;;;;;;5052565;28;20044;-74
2023/03/11 03:11:39;;;;;;;13.13;9.23;;;-1.30;99.90;;;;;;5069677;28;20083;-74
2023/03/11 03:14:04;;;;;;;13.80;9.15;;;-1.30;99.90;;;;;;5059009;28;20036;-74
2023/03/11 03:16:30;;;;;;;14.55;9.13;;;-1.30;99.90;;;;;;5076001;28;20062;-74
2023/03/11 03:18:56;;;;;;;12.35;9.02;;;-1.30;99.90;;;;;;5064937;28;20032;-74
2023/03/11 03:21:21;;;;;;;13.32;8.98;;;-1.30;99.90;;;;;;5047604;28;20032;-74
2023/03/11 03:23:47;;;;;;;12.70;9.15;;;-1.30;99.90;;;;;;5050223;28;20036;-74
2023/03/11 03:26:13;;;;;;;15.65;8.75;;;-1.30;99.90;;;;;;5038488;28;20029;-74
2023/03/11 03:28:39;;;;;;;15.60;9.38;;;-1.30;99.90;;;;;;5033617;28;20426;-74
2023/03/11 03:31:10;;;;;;;13.57;9.10;;;-1.30;99.90;;;;;;5053907;28;20103;-74
2023/03/11 03:33:36;;;;;;;15.38;8.60;;;-1.30;99.90;;;;;;5073777;28;20096;-74
2023/03/11 03:36:09;;;;;;;16.10;9.05;;;-1.30;99.90;;;;;;5064608;28;20470;-75
2023/03/11 03:38:35;;;;;;;16.50;8.93;;;-1.30;99.90;;;;;;5053125;28;20047;-75
2023/03/11 03:41:00;;;;;;;19.42;8.30;;;-1.20;99.90;;;;;;5061165;28;20067;-74
2023/03/11 03:43:26;;;;;;;11.15;8.10;;;-1.30;99.90;;;;;;5041061;28;20539;-74
2023/03/11 03:45:57;;;;;;;14.73;8.98;;;-1.30;99.90;;;;;;5074440;28;20186;-74
2023/03/11 03:48:22;;;;;;;15.00;9.25;;;-1.30;99.90;;;;;;5074306;28;20051;-74
2023/03/11 03:50:48;;;;;;;15.55;9.05;;;-1.30;99.90;;;;;;5051594;28;20067;-74
2023/03/11 03:53:13;;;;;;;11.23;8.25;;;-1.40;99.90;;;;;;5075417;28;20131;-75
2023/03/11 03:55:39;;;;;;;13.15;8.32;;;-1.40;99.90;;;;;;5078580;28;20498;-74
2023/03/11 03:58:05;;;;;;;15.13;9.13;;;-1.40;99.90;;;;;;5074904;28;20039;-74
2023/03/11 04:00:30;;;;;;;15.40;9.63;;;-1.40;99.90;;;;;;5078706;28;20463;-74
2023/03/11 04:02:56;;;;;;;13.63;8.50;;;-1.40;99.90;;;;;;5047946;28;20041;-74
2023/03/11 04:05:25;;;;;;;16.95;9.57;;;-1.30;99.90;;;;;;5067610;28;20032;-75
2023/03/11 04:07:51;;;;;;;14.90;9.38;;;-1.30;99.90;;;;;;5052590;28;20488;-75
2023/03/11 04:10:17;;;;;;;15.95;9.80;;;-1.10;99.90;;;;;;5075826;28;20036;-74
2023/03/11 04:12:43;;;;;;;16.65;10.38;;;-1.20;99.90;;;;;;5076132;28;20149;-75
2023/03/11 04:15:09;;;;;;;17.65;10.25;;;-1.10;99.90;;;;;;5067119;28;20079;-75
2023/03/11 04:17:35;;;;;;;18.30;11.32;;;-1.10;99.90;;;;;;5037862;28;20033;-75
2023/03/11 04:20:00;;;;;;;17.67;10.45;;;-1.00;99.90;;;;;;5070150;28;20540;-74
2023/03/11 04:22:26;;;;;;;17.30;11.32;;;-1.00;99.90;;;;;;5060444;28;20035;-75
2023/03/11 04:24:51;;;;;;;16.95;10.77;;;-0.90;99.90;;;;;;5075449;28;20229;-74
2023/03/11 04:27:17;;;;;;;18.02;10.65;;;-0.90;99.90;;;;;;5049431;28;20128;-74
2023/03/11 04:29:43;;;;;;;17.17;10.73;;;-0.90;99.90;;;;;;5056536;28;20043;-74
2023/03/11 04:32:08;;;;;;;15.32;10.38;;;-0.90;99.90;;;;;;5070040;28;20037;-75
2023/03/11 04:34:34;;;;;;;14.90;10.30;;;-0.90;99.90;;;;;;5079082;28;20035;-74
2023/03/11 04:37:00;;;;;;;16.33;10.57;;;-0.90;99.90;;;;;;5069741;28;20056;-75
2023/03/11 04:39:25;;;;;;;14.90;9.88;;;-0.90;99.90;;;;;;5038620;28;20182;-74
2023/03/11 04:41:51;;;;;;;17.73;9.93;;;-1.00;99.90;;;;;;5038305;28;20162;-74
2023/03/11 04:44:16;;;;;;;16.55;9.95;;;-1.00;99.90;;;;;;5034533;28;20111;-75
2023/03/11 04:46:42;;;;;;;16.17;9.13;;;-1.00;99.90;;;;;;5044897;28;20032;-74
2023/03/11 04:49:09;;;;;;;17.50;9.63;;;-1.00;99.90;;;;;;5071473;28;20127;-75
2023/03/11 04:51:34;;;;;;;14.82;9.45;;;-0.90;99.90;;;;;;5037001;28;20178;-75
2023/03/11 04:54:00;;;;;;;16.45;9.65;;;-0.80;99.90;;;;;;5076449;28;20387;-75
2023/03/11 04:56:26;;;;;;;17.63;9.52;;;-0.70;99.90;;;;;;5077317;28;20618;-74
2023/03/11 04:58:51;;;;;;;14.75;9.65;;;-0.60;99.90;;;;;;5077843;28;20691;-74
2023/03/11 05:01:17;;;;;;;17.77;9.18;;;-0.50;99.90;;;;;;5073586;28;20089;-75
2023/03/11 05:03:42;;;;;;;19.92;8.73;;;-0.40;99.90;;;;;;5036782;28;20033;-74
2023/03/11 05:06:08;;;;;;;16.27;9.48;;;-0.40;99.90;;;;;;5043760;28;20421;-74
2023/03/11 05:08:34;;;;;;;13.60;8.93;;;-0.40;99.90;;;;;;5054863;28;20478;-74
2023/03/11 05:10:59;;;;;;;14.27;8.18;;;-0.40;99.90;;;;;;5076094;28;20031;-74
2023/03/11 05:13:25;;;;;;;14.10;8.55;;;-0.40;99.90;;;;;;5044802;28;20033;-75
2023/03/11 05:15:50;;;;;;;12.73;8.63;;;-0.30;99.90;;;;;;5044952;28;20028;-75
2023/03/11 05:18:16;;;;;;;16.17;9.88;;;-0.30;99.90;;;;;;5054427;28;20024;-74
2023/03/11 05:20:42;;;;;;;15.93;9.60;;;-0.30;99.90;;;;;;5067156;28;20050;-74
2023/03/11 05:23:08;;;;;;;15.13;9.70;;;-0.40;99.90;;;;;;5065125;28;20052;-74
2023/03/11 05:25:34;;;;;;;16.20;10.20;;;-0.30;99.90;;;;;;5041039;28;20513;-74
2023/03/11 05:28:00;;;;;;;15.90;9.88;;;-0.30;99.90;;;;;;5043599;28;20170;-75
2023/03/11 05:30:25;;;;;;;13.07;9.10;;;-0.40;99.90;;;;;;5055131;28;20145;-75
2023/03/11 05:32:51;;;;;;;19.52;9.75;;;-0.40;99.90;;;;;;5076981;28;20109;-75
2023/03/11 05:35:17;;;;;;;13.65;9.77;;;-0.40;99.90;;;;;;5077063;28;20035;-75
2023/03/11 05:37:42;;;;;;;15.70;9.00;;;-0.40;99.90;;;;;;5072110;28;20611;-74
2023/03/11 05:40:11;;;;;;;13.35;8.82;;;-0.40;99.90;;;;;;5053027;28;20463;-74
2023/03/11 05:42:39;;;;;;;16.70;9.23;;;-0.40;99.90;;;;;;5036177;28;20411;-75
2023/03/11 05:45:04;;;;;;;13.07;9.07;;;-0.40;99.90;;;;;;5057905;28;20351;-75
2023/03/11 05:47:30;;;;;;;13.07;8.25;;;-0.40;99.90;;;;;;5062617;28;20043;-75
2023/03/11 05:49:56;;;;;;;12.90;8.18;;;-0.40;99.90;;;;;;5077352;28;21369;-75
2023/03/11 05:52:21;;;;;;;15.32;8.15;;;-0.40;99.90;;;;;;5038413;28;20127;-74
2023/03/11 05:54:51;;;;;;;15.35;7.93;;;-0.40;99.90;;;;;;5075059;28;20060;-75
2023/03/11 05:57:17;;;;;;;10.63;7.80;;;-0.30;99.90;;;;;;5068797;28;20519;-75
2023/03/11 05:59:43;;;;;;;15.10;7.70;;;-0.30;99.90;;;;;;5057604;28;20020;-74
2023/03/11 06:02:09;;;;;;;11.60;8.10;;;-0.30;99.90;;;;;;5056750;28;20038;-75
2023/03/11 06:04:35;;;;;;;12.52;7.93;;;-0.30;99.90;;;;;;5040150;28;20017;-75
2023/03/11 06:07:01;;;;;;;13.55;7.68;;;-0.30;99.90;;;;;;5078975;28;20031;-75
2023/03/11 06:09:27;;;;;;;10.07;7.35;;;-0.30;99.90;;;;;;5075360;28;20452;-74
2023/03/11 06:11:53;;;;;;;10.50;7.43;;;-0.30;99.90;;;;;;5080639;28;20051;-75
2023/03/11 06:14:19;;;;;;;11.57;7.57;;;-0.30;99.90;;;;;;5069828;28;20059;-75
2023/03/11 06:16:44;;;;;;;10.05;6.70;;;-0.30;99.90;;;;;;5071700;28;20075;-74
2023/03/11 06:19:10;;;;;;;10.85;7.82;;;-0.20;99.90;;;;;;5067067;28;20039;-75
2023/03/11 06:21:36;;;;;;;15.90;8.15;;;-0.20;99.90;;;;;;5072285;28;20024;-75
2023/03/11 06:24:02;;;;;;;15.18;8.20;;;-0.20;99.90;;;;;;5066626;28;20031;-75
2023/03/11 06:26:28;;;;;;;13.30;8.27;;;-0.20;99.90;;;;;;5075813;28;20100;-74
2023/03/11 06:28:54;;;;;;;12.68;7.78;;;-0.20;99.90;;;;;;5054683;28;20025;-75
2023/03/11 06:31:24;;;;;;;14.20;8.75;;;-0.20;99.90;;;;;;5052717;28;20024;-74
2023/03/11 06:33:49;;;;;;;15.27;7.88;;;-0.30;99.90;;;;;;5062489;28;20035;-75
2023/03/11 06:36:17;;;;;;;17.50;7.82;;;-0.30;99.90;;;;;;5079104;28;20047;-75
2023/03/11 06:38:42;;;;;;;12.60;7.28;;;-0.30;99.90;;;;;;5075535;28;20040;-75
2023/03/11 06:41:09;;;;;;;11.05;7.70;;;-0.30;99.90;;;;;;5060074;28;20039;-75
2023/03/11 06:43:35;;;;;;;12.68;7.95;;;-0.20;99.90;;;;;;5078131;28;20038;-74
2023/03/11 06:46:06;;;;;;;15.98;8.18;;;-0.10;99.90;;;;;;5068556;28;20028;-75
2023/03/11 06:48:32;;;;;;;13.00;7.95;;;-0.10;99.90;;;;;;5062450;28;20033;-75
2023/03/11 06:50:59;;;;;;;12.07;7.75;;;0.00;99.90;;;;;;5054097;28;20506;-75
2023/03/11 06:53:26;;;;;;;19.75;8.25;;;0.10;99.90;;;;;;5038526;28;20055;-75
2023/03/11 06:56:02;;;;;;;14.05;8.07;;;0.30;99.90;;;;;;5039281;28;20064;-75
2023/03/11 06:58:28;;;;;;;21.13;7.70;;;0.40;99.90;;;;;;5079271;28;20432;-75
2023/03/11 07:00:54;;;;;;;10.85;7.50;;;0.60;99.90;;;;;;5078687;28;20097;-75
2023/03/11 07:03:20;;;;;;;12.60;7.00;;;0.80;99.90;;;;;;5072001;28;20025;-75
2023/03/11 07:05:49;;;;;;;16.55;7.68;;;1.00;99.90;;;;;;5054159;28;20123;-75
2023/03/11 07:08:15;;;;;;;11.82;6.15;;;1.20;99.90;;;;;;5037198;28;20110;-75
2023/03/11 07:10:40;;;;;;;10.45;6.25;;;1.30;99.90;;;;;;5078112;28;20154;-75
2023/03/11 07:13:06;;;;;;;14.07;7.25;;;1.40;99.90;;;;;;5076169;28;20559;-75
2023/03/11 07:15:32;;;;;;;13.05;7.90;;;1.50;99.90;;;;;;5058872;28;20421;-75
2023/03/11 07:17:58;;;;;;;11.90;7.13;;;1.50;99.90;;;;;;5066826;28;20037;-75
2023/03/11 07:20:23;;;;;;;10.38;6.53;;;1.50;99.90;;;;;;5054608;28;20361;-75
2023/03/11 07:22:49;;;;;;;13.10;7.72;;;1.40;99.90;;;;;;5055203;28;20040;-75
2023/03/11 07:25:14;;;;;;;10.88;6.18;;;1.40;99.90;;;;;;5054514;28;20176;-75
2023/03/11 07:27:40;;;;;;;10.55;6.20;;;1.40;99.90;;;;;;5041679;28;20029;-75
2023/03/11 07:30:06;;;;;;;9.73;6.15;;;1.40;99.90;;;;;;5046412;28;20571;-74
2023/03/11 07:32:32;;;;;;;13.57;7.72;;;1.40;99.90;;;;;;5047311;28;20040;-75
2023/03/11 07:34:57;;;;;;;15.82;7.07;;;1.40;99.90;;;;;;5046689;28;20031;-74
2023/03/11 07:37:23;;;;;;;11.82;6.72;;;1.50;99.90;;;;;;5054785;28;20685;-75
2023/03/11 07:39:49;;;;;;;12.13;6.30;;;1.60;99.90;;;;;;5053856;28;20649;-75
2023/03/11 07:42:14;;;;;;;10.73;7.30;;;1.60;99.90;;;;;;5069230;28;20039;-75
2023/03/11 07:44:40;;;;;;;14.73;7.03;;;1.60;99.90;;;;;;5061613;28;20032;-75
2023/03/11 07:47:06;;;;;;;11.30;6.95;;;1.70;99.90;;;;;;5060341;28;20085;-75
2023/03/11 07:49:32;;;;;;;11.55;7.03;;;1.90;99.90;;;;;;5058990;28;20559;-74
2023/03/11 07:51:58;;;;;;;11.95;6.57;;;2.10;99.90;;;;;;5053610;28;20035;-74
2023/03/11 07:54:23;;;;;;;11.85;6.35;;;2.40;99.90;;;;;;5038438;28;20603;-74
2023/03/11 07:56:49;;;;;;;9.90;6.50;;;2.80;99.90;;;;;;5040990;28;20570;-74
2023/03/11 07:59:14;;;;;;;8.90;5.88;;;3.10;99.90;;;;;;5044086;28;20082;-75
2023/03/11 08:01:45;;;;;;;9.27;5.38;;;3.30;99.90;;;;;;5057486;28;21375;-74
2023/03/11 08:04:12;;;;;;;10.48;5.53;;;3.60;99.90;;;;;;5053380;28;20035;-75
2023/03/11 08:06:40;;;;;;;10.50;4.90;;;4.00;99.90;;;;;;5061473;28;20036;-74
2023/03/11 08:09:08;;;;;;;9.25;4.70;;;4.50;99.90;;;;;;5054620;28;20403;-75
2023/03/11 08:11:34;;;;;;;10.23;4.75;;;4.70;99.90;;;;;;5057893;28;20452;-75
2023/03/11 08:14:00;;;;;;;6.43;4.30;;;5.00;99.90;;;;;;5073816;28;20468;-74
2023/03/11 08:16:26;;;;;;;7.30;4.50;;;5.10;99.90;;;;;;5052965;28;20086;-75
2023/03/11 08:18:52;;;;;;;9.90;4.70;;;5.30;97.70;;;;;;5047221;28;20058;-74
2023/03/11 08:21:23;;;;;;;7.38;4.75;;;5.70;97.10;;;;;;5077432;28;20024;-74
2023/03/11 08:23:50;;;;;;;7.88;4.95;;;6.10;95.10;;;;;;5063788;28;20044;-74
2023/03/11 08:26:19;;;;;;;8.55;4.75;;;6.20;95.50;;;;;;5055101;28;20032;-74
2023/03/11 08:28:45;;;;;;;10.80;5.07;;;5.90;97.50;;;;;;5052867;28;20449;-74
2023/03/11 08:31:12;;;;;;;9.90;5.13;;;5.80;98.40;;;;;;5056245;28;20028;-74
2023/03/11 08:33:38;;;;;;;10.55;5.20;;;5.90;96.00;;;;;;5069899;28;20048;-74
2023/03/11 08:36:03;;;;;;;12.18;5.03;;;6.00;95.00;;;;;;5056161;28;20044;-75
2023/03/11 08:38:29;;;;;;;8.15;4.68;;;6.20;96.00;;;;;;5052828;28;20036;-74
2023/03/11 08:40:55;;;;;;;9.77;4.22;;;6.40;92.10;;;;;;5058103;28;20036;-75
2023/03/11 08:43:20;;;;;;;7.88;4.22;;;6.50;92.90;;;;;;5053283;28;20522;-75
2023/03/11 08:45:46;;;;;;;6.95;3.85;;;6.40;88.60;;;;;;5058323;28;20471;-74
2023/03/11 08:48:11;;;;;;;6.88;3.67;;;6.50;92.40;;;;;;5045404;28;20395;-74
2023/03/11 08:50:41;;;;;;;7.57;4.40;;;6.70;86.90;;;;;;5077258;28;20111;-75
2023/03/11 08:53:07;;;;;;;10.00;4.85;;;6.90;85.50;;;;;;5068377;28;20117;-74
2023/03/11 08:55:33;;;;;;;8.38;3.95;;;7.20;84.60;;;;;;5042114;28;20048;-75
2023/03/11 08:57:59;;;;;;;8.15;4.40;;;7.80;76.60;;;;;;5058192;28;20044;-74
2023/03/11 09:00:24;;;;;;;6.38;4.32;;;8.50;74.30;;;;;;5061392;28;20044;-75
2023/03/11 09:02:52;;;;;;;9.98;3.85;;;9.20;68.60;;;;;;5059193;28;20036;-74
2023/03/11 09:05:17;;;;;;;9.73;3.75;;;9.70;66.30;;;;;;5044748;28;20448;-74
2023/03/11 09:07:43;;;;;;;9.43;4.75;;;9.90;63.50;;;;;;5041778;28;20154;-74
2023/03/11 09:10:13;;;;;;;6.35;3.70;;;10.30;60.80;;;;;;5044653;28;20075;-74
2023/03/11 09:12:38;;;;;;;7.82;3.75;;;10.60;60.80;;;;;;5047280;28;20436;-74
2023/03/11 09:15:05;;;;;;;9.32;3.33;;;10.90;58.50;;;;;;5044081;28;20028;-74
2023/03/11 09:17:30;;;;;;;5.85;3.65;;;11.40;58.10;;;;;;5051632;28;20522;-74
2023/03/11 09:19:56;;;;;;;9.00;3.42;;;11.80;56.50;;;;;;5081807;28;20028;-74
2023/03/11 09:22:21;;;;;;;10.35;4.53;;;12.60;54.70;;;;;;5052496;28;20555;-74
2023/03/11 09:24:48;;;;;;;9.00;3.65;;;12.80;53.90;;;;;;5059838;28;20024;-74
2023/03/11 09:27:14;;;;;;;6.85;3.53;;;12.90;53.30;;;;;;5054548;28;20120;-74
2023/03/11 09:29:40;;;;;;;8.35;3.42;;;12.70;54.90;;;;;;5045721;28;20040;-74
2023/03/11 09:32:06;;;;;;;7.60;3.10;;;12.70;53.40;;;;;;5054663;28;20041;-74
2023/03/11 09:34:32;;;;;;;9.02;3.03;;;12.80;54.80;;;;;;5058850;28;20097;-72
2023/03/11 09:36:57;;;;;;;7.15;2.83;;;13.00;52.30;;;;;;5043845;28;20480;-75
2023/03/11 09:39:23;;;;;;;7.05;2.65;;;12.90;51.70;;;;;;5047569;28;20020;-75
2023/03/11 09:41:56;;;;;;;3.50;2.20;;;12.90;52.60;;;;;;5040194;28;20024;-75
2023/03/11 09:44:38;;;;;;;6.43;3.50;;;12.90;51.40;;;;;;5041960;28;20475;-75
2023/03/11 09:47:22;;;;;;;;;;;12.70;52.70;;;;;;5047494;28;20024;-75
2023/03/11 09:49:50;;;;;;;7.00;2.53;;;13.10;50.20;;;;;;5051181;28;20393;-75
2023/03/11 09:52:29;;;;;;;5.82;2.40;;;13.30;50.40;;;;;;5052394;28;20444;-71
2023/03/11 09:54:55;;;;;;;10.13;2.85;;;13.20;51.50;;;;;;5051884;28;20119;-75
2023/03/11 09:57:31;;;;;;;9.20;2.55;;;13.00;50.90;;;;;;5050787;28;20142;-74
2023/03/11 09:59:58;;;;;;;8.13;2.72;;;12.90;52.40;;;;;;5052947;28;20111;-75
2023/03/11 10:02:26;;;;;;;5.78;2.55;;;12.70;52.60;;;;;;5060596;28;20323;-76
2023/03/11 10:05:18;;;;;;;6.25;2.90;;;12.60;55.00;;;;;;5050374;28;20468;-74
2023/03/11 10:07:50;;;;;;;5.35;2.72;;;12.80;52.10;;;;;;5050343;28;20037;-74
2023/03/11 10:10:17;;;;;;;6.18;2.38;;;12.60;52.80;;;;;;5056408;28;20476;-75
2023/03/11 10:13:02;;;;;;;7.53;2.55;;;12.40;53.70;;;;;;5054296;28;20045;-75
2023/03/11 10:15:40;;;;;;;8.00;2.63;;;12.80;53.60;;;;;;5056302;28;20055;-74
2023/03/11 10:18:24;;;;;;;7.55;2.50;;;13.40;52.20;;;;;;5052185;28;20118;-74
2023/03/11 10:21:10;;;;;;;5.53;1.92;;;13.70;52.20;;;;;;5053223;28;20489;-74
2023/03/11 10:23:36;;;;;;;3.10;1.70;;;13.80;49.10;;;;;;5052457;28;20068;-74
2023/03/11 10:26:17;;;;;;;7.95;2.28;;;14.30;50.20;;;;;;5056203;28;20538;-74
2023/03/11 10:28:48;;;;;;;4.75;2.17;;;15.30;50.80;;;;;;5056571;28;20116;-73
2023/03/11 10:31:23;;;;;;;;;;;16.20;46.20;;;;;;5051679;28;20031;-74
2023/03/11 10:33:59;;;;;;;4.30;1.65;;;16.70;43.70;;;;;;5070531;28;19972;-74
2023/03/11 10:36:32;;;;;;;8.82;2.20;;;15.90;44.00;;;;;;5069388;28;20167;-74
2023/03/11 10:38:59;;;;;;;4.95;1.58;;;15.50;45.80;;;;;;5065926;28;20023;-73
2023/03/11 10:41:46;;;;;;;4.70;1.40;;;15.60;46.40;;;;;;5064463;28;20025;-72
2023/03/11 10:44:23;;;;;;;6.13;1.70;;;16.10;44.50;;;;;;5045541;28;20025;-74
2023/03/11 10:46:49;;;;;;;4.05;1.13;;;16.10;44.40;;;;;;5051797;28;20136;-74
2023/03/11 10:49:16;;;;;;;5.43;1.05;;;14.90;42.50;;;;;;5053856;28;20395;-75
2023/03/11 10:51:47;;;;;;;3.92;0.70;;;14.10;45.30;;;;;;5048919;28;20388;-74
2023/03/11 10:54:28;;;;;;;;;;;13.00;44.40;;;;;;5052912;28;20111;-74
2023/03/11 10:56:57;;;;;;;6.13;1.23;;;12.90;47.70;;;;;;5053642;28;19912;-75
2023/03/11 10:59:27;;;;;;;5.57;0.65;;;13.30;48.30;;;;;;5052610;28;20681;-74
2023/03/11 11:02:00;;;;;;;3.45;0.60;;;13.10;44.90;;;;;;5056346;28;20399;-73
2023/03/11 11:04:35;;;;;;;2.88;1.05;;;12.30;48.30;;;;;;5050373;28;20025;-74
2023/03/11 11:07:27;;;;;;;3.90;0.65;;;12.60;47.20;;;;;;5046834;28;20090;-74
2023/03/11 11:10:10;;;;;;;5.95;0.90;;;13.70;48.60;;;;;;5042399;28;20107;-74
2023/03/11 11:12:37;;;;;;;7.43;0.80;;;14.70;42.40;;;;;;5075975;28;20039;-75
2023/03/11 11:15:04;;;;;;;2.55;0.77;;;15.00;40.20;;;;;;5072514;28;20432;-75
2023/03/11 11:17:32;;;;;;;7.00;0.70;;;15.20;40.50;;;;;;5058178;28;20063;-74
2023/03/11 11:20:11;;;;;;;4.28;0.70;;;15.10;39.40;;;;;;5052099;28;20036;-75
2023/03/11 11:22:38;;;;;;;3.75;0.88;;;14.60;42.90;;;;;;5062539;28;20127;-74
2023/03/11 11:25:28;;;;;;;3.92;0.90;;;14.60;43.20;;;;;;5062231;28;20046;-74
2023/03/11 11:28:00;;;;;;;6.70;0.95;;;15.00;42.50;;;;;;5052449;28;20032;-74
2023/03/11 11:30:26;;;;;;;6.20;1.35;;;14.70;42.30;;;;;;5057576;28;20051;-75
2023/03/11 11:32:54;;;;;;;3.40;0.90;;;14.60;41.20;;;;;;5040661;28;20097;-75
2023/03/11 11:35:22;;;;;;;5.07;0.70;;;14.80;43.10;;;;;;5062160;28;20112;-74
2023/03/11 11:38:00;;;;;;;6.03;0.60;;;14.90;41.80;;;;;;5057109;28;20036;-75
2023/03/11 11:40:35;;;;;;;4.70;0.80;;;13.80;45.20;;;;;;5049740;28;20087;-74
2023/03/11 11:43:10;;;;;;;3.70;1.08;;;12.20;46.00;;;;;;5048990;28;20278;-74
2023/03/11 11:45:42;;;;;;;3.30;0.70;;;11.70;50.80;;;;;;5050792;28;20051;-74
2023/03/11 11:48:36;;;;;;;6.53;0.98;;;11.30;50.20;;;;;;5072366;28;20038;-75
2023/03/11 11:51:14;;;;;;;6.28;0.88;;;11.50;51.10;;;;;;5075610;28;20028;-75
2023/03/11 11:53:45;;;;;;;4.55;0.90;;;11.40;49.50;;;;;;5075349;28;20055;-74
2023/03/11 11:56:12;;;;;;;4.45;0.70;;;10.70;51.50;;;;;;5035503;28;20057;-75
2023/03/11 11:58:39;;;;;;;4.75;0.70;;;10.70;52.60;;;;;;5049983;28;20032;-74
2023/03/11 12:01:28;;;;;;;7.43;1.70;;;10.50;54.60;;;;;;5035379;28;20029;-75
2023/03/11 12:04:26;;;;;;;2.10;0.80;;;11.10;52.60;;;;;;5068892;28;20028;-74
2023/03/11 12:07:16;;;;;;;5.70;1.05;;;10.80;52.00;;;;;;5068973;28;20395;-75
2023/03/11 12:10:05;;;;;;;4.38;0.80;;;10.60;51.60;;;;;;5031803;28;20033;-75
2023/03/11 12:13:04;;;;;;;9.57;1.00;;;11.10;54.50;;;;;;5051880;28;20056;-75
2023/03/11 12:15:43;;;;;;;5.05;0.77;;;11.90;54.40;;;;;;5059000;28;20199;-75
2023/03/11 12:18:20;;;;;;;6.32;1.42;;;12.60;50.80;;;;;;5058086;28;20065;-74
2023/03/11 12:20:53;;;;;;;3.20;0.68;;;13.00;49.00;;;;;;5044363;28;20032;-75
2023/03/11 12:23:28;;;;;;;6.18;0.95;;;13.10;51.40;;;;;;5067903;28;20143;-75
2023/03/11 12:26:08;;;;;;;2.72;0.57;;;12.40;47.30;;;;;;5078781;28;20035;-75
2023/03/11 12:28:40;;;;;;;7.18;0.80;;;12.70;49.80;;;;;;5067629;28;20036;-72
2023/03/11 12:31:11;;;;;;;5.20;0.98;;;13.00;49.10;;;;;;5057144;28;20098;-72
2023/03/11 12:33:44;;;;;;;3.90;0.93;;;13.10;50.20;;;;;;5041728;28;20550;-76
2023/03/11 12:36:30;;;;;;;2.22;0.75;;;12.80;46.10;;;;;;5054331;28;20036;-72
2023/03/11 12:38:57;;;;;;;4.28;0.80;;;12.30;47.70;;;;;;5050312;28;20037;-72
2023/03/11 12:41:35;;;;;;;5.15;0.95;;;11.90;46.50;;;;;;5041457;28;20017;-74
2023/03/11 12:44:21;;;;;;;4.90;0.93;;;11.70;49.50;;;;;;5041824;28;20021;-73
2023/03/11 12:46:53;;;;;;;5.20;0.85;;;11.40;51.00;;;;;;5042530;28;20404;-75
2023/03/11 12:49:24;;;;;;;6.32;0.90;;;11.20;52.00;;;;;;5040948;28;20484;-76
2023/03/11 12:52:00;;;;;;;;;;;11.50;49.90;;;;;;5067015;28;20058;-75